Time;durP1;ratioP1;P1;durP2;ratioP2;P2;SDS_P1;SDS_P2;PMS_P1;PMS_P2;Temp;Humidity;BMP_temperature;BMP_pressure;BME280_temperature;BME280_humidity;BME280_pressure;Samples;Min_cycle;Max_cycle;Signal;HPM_P1;HPM_P2
2022/03/10 00:02:17;;;;;;;18.08;11.40;;;5.20;58.30;;;;;;5050323;28;20041;-80
2022/03/10 00:04:43;;;;;;;30.20;10.48;;;5.20;58.30;;;;;;5050900;28;20041;-79
2022/03/10 00:07:08;;;;;;;17.08;11.23;;;5.10;58.40;;;;;;5050356;28;20123;-79
2022/03/10 00:09:34;;;;;;;19.45;10.65;;;5.10;58.80;;;;;;5034280;28;20045;-80
2022/03/10 00:12:00;;;;;;;16.00;11.05;;;5.00;58.70;;;;;;5049654;28;20043;-80
2022/03/10 00:14:26;;;;;;;17.88;10.63;;;5.00;59.10;;;;;;5033466;28;20029;-80
2022/03/10 00:16:53;;;;;;;18.45;11.32;;;4.90;59.00;;;;;;5049964;28;20501;-80
2022/03/10 00:19:18;;;;;;;19.60;10.35;;;4.90;58.90;;;;;;5049975;28;20043;-80
2022/03/10 00:21:45;;;;;;;17.88;11.15;;;4.90;59.10;;;;;;5049667;28;20045;-80
2022/03/10 00:24:12;;;;;;;17.73;10.70;;;4.80;59.10;;;;;;5049644;28;20064;-80
2022/03/10 00:26:37;;;;;;;20.88;10.98;;;4.80;59.30;;;;;;5049415;28;20041;-80
2022/03/10 00:29:06;;;;;;;17.50;10.25;;;4.70;59.40;;;;;;5050099;28;20087;-80
2022/03/10 00:31:32;;;;;;;18.40;11.30;;;4.70;59.70;;;;;;5049829;28;20037;-80
2022/03/10 00:33:58;;;;;;;18.98;11.02;;;4.70;59.90;;;;;;5033424;28;20040;-80
2022/03/10 00:36:24;;;;;;;17.65;11.05;;;4.60;60.10;;;;;;5050097;28;20041;-80
2022/03/10 00:38:50;;;;;;;18.90;11.70;;;4.60;60.30;;;;;;5050361;28;20040;-80
2022/03/10 00:41:16;;;;;;;19.20;10.77;;;4.50;60.70;;;;;;5033344;28;20059;-80
2022/03/10 00:43:42;;;;;;;17.90;11.45;;;4.40;61.10;;;;;;5050236;28;20048;-80
2022/03/10 00:46:07;;;;;;;18.23;11.20;;;4.40;61.20;;;;;;5049822;28;20506;-80
2022/03/10 00:48:33;;;;;;;18.63;10.93;;;4.40;61.80;;;;;;5049879;28;20041;-80
2022/03/10 00:50:59;;;;;;;17.02;10.73;;;4.40;60.90;;;;;;5050163;28;20064;-80
2022/03/10 00:53:24;;;;;;;19.38;12.43;;;4.40;61.00;;;;;;5049715;28;20414;-81
2022/03/10 00:55:50;;;;;;;20.42;12.10;;;4.40;61.10;;;;;;5049329;28;20040;-80
2022/03/10 00:58:15;;;;;;;18.80;11.95;;;4.40;61.30;;;;;;5050192;28;20076;-80
2022/03/10 01:00:41;;;;;;;19.38;12.38;;;4.30;61.30;;;;;;5033232;28;20040;-80
2022/03/10 01:03:07;;;;;;;19.27;11.75;;;4.30;61.50;;;;;;5049533;28;20037;-81
2022/03/10 01:05:33;;;;;;;21.00;11.77;;;4.20;61.60;;;;;;5049938;28;20040;-80
2022/03/10 01:07:59;;;;;;;20.92;11.70;;;4.20;62.10;;;;;;5049486;28;20041;-80
2022/03/10 01:10:25;;;;;;;19.98;12.05;;;4.20;62.10;;;;;;5033122;28;20045;-80
2022/03/10 01:12:51;;;;;;;18.23;11.23;;;4.20;62.50;;;;;;5049591;28;20076;-80
2022/03/10 01:15:23;;;;;;;17.85;11.43;;;4.10;62.70;;;;;;5049701;28;20474;-80
2022/03/10 01:17:49;;;;;;;17.00;10.55;;;4.10;62.70;;;;;;5033201;28;20152;-80
2022/03/10 01:20:16;;;;;;;18.42;11.45;;;4.10;62.60;;;;;;5049709;28;20518;-80
2022/03/10 01:22:41;;;;;;;18.67;11.38;;;4.10;62.90;;;;;;5049808;28;20037;-80
2022/03/10 01:25:08;;;;;;;18.92;11.48;;;4.00;62.80;;;;;;5033090;28;20477;-80
2022/03/10 01:27:34;;;;;;;16.52;11.15;;;4.00;63.00;;;;;;5049794;28;20040;-80
2022/03/10 01:30:00;;;;;;;19.25;11.25;;;4.00;63.30;;;;;;5033083;28;20548;-80
2022/03/10 01:32:26;;;;;;;21.42;12.18;;;4.00;63.60;;;;;;5049393;28;20091;-80
2022/03/10 01:34:52;;;;;;;19.73;10.82;;;4.00;63.90;;;;;;5052339;28;20548;-80
2022/03/10 01:37:19;;;;;;;21.45;11.35;;;3.90;64.00;;;;;;5053158;28;20086;-80
2022/03/10 01:39:45;;;;;;;20.30;12.30;;;3.90;64.30;;;;;;5053602;28;20398;-79
2022/03/10 01:42:11;;;;;;;19.67;11.50;;;3.90;64.40;;;;;;5053330;28;20052;-80
2022/03/10 01:44:38;;;;;;;19.60;11.50;;;3.90;64.70;;;;;;5053088;28;20048;-81
2022/03/10 01:47:05;;;;;;;17.80;11.90;;;3.90;64.80;;;;;;5036354;28;20041;-80
2022/03/10 01:49:32;;;;;;;20.08;12.68;;;3.90;65.40;;;;;;5053215;28;20098;-80
2022/03/10 01:51:58;;;;;;;20.98;11.45;;;3.80;65.50;;;;;;5036302;28;20498;-80
2022/03/10 01:54:24;;;;;;;19.23;12.20;;;3.80;65.90;;;;;;5052718;28;20036;-80
2022/03/10 01:56:51;;;;;;;20.05;11.75;;;3.80;66.30;;;;;;5052827;28;20525;-80
2022/03/10 01:59:18;;;;;;;22.10;12.70;;;3.80;66.40;;;;;;5052728;28;20041;-80
2022/03/10 02:01:44;;;;;;;19.13;11.23;;;3.80;66.50;;;;;;5053117;28;20036;-78
2022/03/10 02:04:10;;;;;;;20.67;11.55;;;3.80;66.70;;;;;;5032029;28;20133;-80
2022/03/10 02:06:35;;;;;;;20.50;13.20;;;3.80;66.80;;;;;;5035873;28;20557;-79
2022/03/10 02:11:48;;;;;;;18.48;12.20;;;3.70;67.50;;;;;;5069106;28;20044;-80
2022/03/10 02:19:43;;;;;;;20.77;11.50;;;3.70;68.10;;;;;;5072495;28;20048;-80
2022/03/10 02:22:13;;;;;;;19.15;11.90;;;3.60;68.30;;;;;;5072696;28;20052;-80
2022/03/10 02:24:40;;;;;;;20.15;12.00;;;3.60;68.40;;;;;;5072307;28;20052;-80
2022/03/10 02:27:20;;;;;;;18.10;11.68;;;3.60;68.60;;;;;;5072270;28;20041;-80
2022/03/10 02:29:47;;;;;;;18.45;11.77;;;3.50;69.40;;;;;;5072259;28;20123;-81
2022/03/10 02:32:14;;;;;;;19.15;11.98;;;3.50;69.20;;;;;;5072212;28;20033;-80
2022/03/10 02:34:40;;;;;;;20.98;11.98;;;3.50;69.40;;;;;;5055417;28;20032;-79
2022/03/10 02:37:08;;;;;;;19.33;11.65;;;3.50;69.50;;;;;;5072103;28;20064;-79
2022/03/10 02:39:34;;;;;;;20.27;11.60;;;3.40;69.20;;;;;;5072147;28;20040;-79
2022/03/10 02:42:01;;;;;;;21.90;12.43;;;3.40;69.30;;;;;;5055671;28;20037;-79
2022/03/10 02:44:27;;;;;;;20.38;10.95;;;3.40;68.90;;;;;;5072139;28;20075;-79
2022/03/10 02:46:52;;;;;;;21.08;11.63;;;3.40;68.70;;;;;;5054586;28;20040;-79
2022/03/10 02:49:18;;;;;;;21.27;11.50;;;3.40;68.60;;;;;;5071752;28;20040;-79
2022/03/10 02:51:44;;;;;;;18.50;11.00;;;3.40;69.00;;;;;;5071668;28;20095;-79
2022/03/10 02:54:10;;;;;;;19.95;11.93;;;3.30;69.00;;;;;;5054731;28;20086;-79
2022/03/10 02:56:35;;;;;;;18.95;11.43;;;3.30;69.20;;;;;;5071749;28;20033;-79
2022/03/10 02:59:01;;;;;;;19.52;11.43;;;3.30;69.50;;;;;;5071856;28;20040;-79
2022/03/10 03:01:28;;;;;;;17.33;10.20;;;3.20;69.40;;;;;;5071684;28;20048;-79
2022/03/10 03:03:53;;;;;;;19.65;10.80;;;3.30;69.20;;;;;;5071075;28;20453;-79
2022/03/10 03:06:19;;;;;;;19.75;11.93;;;3.30;69.20;;;;;;5071615;28;20036;-79
2022/03/10 03:08:45;;;;;;;18.52;10.20;;;3.30;68.80;;;;;;5071459;28;20413;-80
2022/03/10 03:11:11;;;;;;;20.38;10.85;;;3.30;69.20;;;;;;5071251;28;20048;-80
2022/03/10 03:13:36;;;;;;;20.17;11.05;;;3.30;69.50;;;;;;5071438;28;20111;-79
2022/03/10 03:16:02;;;;;;;16.42;10.23;;;3.20;69.70;;;;;;5071341;28;20040;-80
2022/03/10 03:18:28;;;;;;;17.67;10.63;;;3.20;69.50;;;;;;5071275;28;20048;-80
2022/03/10 03:20:53;;;;;;;16.95;10.13;;;3.20;69.60;;;;;;5071171;28;20047;-80
2022/03/10 03:23:19;;;;;;;19.65;11.38;;;3.20;69.70;;;;;;5071112;28;20101;-80
2022/03/10 03:25:44;;;;;;;17.13;10.73;;;3.20;69.70;;;;;;5071230;28;20058;-80
2022/03/10 03:28:10;;;;;;;16.85;10.57;;;3.20;69.70;;;;;;5071067;28;20533;-79
2022/03/10 03:30:35;;;;;;;15.90;9.88;;;3.20;69.70;;;;;;5054499;28;20039;-80
2022/03/10 03:33:01;;;;;;;16.73;10.18;;;3.20;69.90;;;;;;5070616;28;20036;-80
2022/03/10 03:35:27;;;;;;;18.83;10.60;;;3.10;69.70;;;;;;5054363;28;20043;-79
2022/03/10 03:37:53;;;;;;;17.85;9.52;;;3.10;69.80;;;;;;5053922;28;20037;-79
2022/03/10 03:40:18;;;;;;;18.50;10.48;;;3.10;70.10;;;;;;5071239;28;20040;-80
2022/03/10 03:42:44;;;;;;;17.13;10.40;;;3.10;69.80;;;;;;5054167;28;20577;-80
2022/03/10 03:45:10;;;;;;;16.73;9.15;;;3.10;70.10;;;;;;5071045;28;20046;-80
2022/03/10 03:47:36;;;;;;;16.98;10.15;;;3.10;70.00;;;;;;5070915;28;20032;-80
2022/03/10 03:50:04;;;;;;;18.63;10.07;;;3.10;70.40;;;;;;5070897;28;20810;-80
2022/03/10 03:52:29;;;;;;;16.75;9.75;;;3.00;70.90;;;;;;5054113;28;20044;-80
2022/03/10 03:54:55;;;;;;;16.30;10.23;;;3.00;71.20;;;;;;5070848;28;20408;-80
2022/03/10 03:57:20;;;;;;;18.05;9.55;;;3.00;71.90;;;;;;5069404;28;20036;-80
2022/03/10 03:59:46;;;;;;;18.17;10.70;;;2.90;72.20;;;;;;5054221;28;20033;-80
2022/03/10 04:02:12;;;;;;;18.15;10.50;;;2.90;72.50;;;;;;5070454;28;20127;-80
2022/03/10 04:04:37;;;;;;;19.20;10.40;;;2.90;72.90;;;;;;5053651;28;20094;-80
2022/03/10 04:07:04;;;;;;;18.08;10.23;;;2.90;73.30;;;;;;5070294;28;20045;-80
2022/03/10 04:09:29;;;;;;;17.15;9.90;;;2.90;72.90;;;;;;5070620;28;20080;-80
2022/03/10 04:11:55;;;;;;;18.95;10.23;;;2.80;72.80;;;;;;5053550;28;20566;-80
2022/03/10 04:14:21;;;;;;;16.70;10.40;;;2.90;73.40;;;;;;5070759;28;20036;-80
2022/03/10 04:16:47;;;;;;;18.33;10.43;;;2.80;73.30;;;;;;5070151;28;20496;-80
2022/03/10 04:19:12;;;;;;;16.20;10.77;;;2.80;73.70;;;;;;5070241;28;20119;-80
2022/03/10 04:21:38;;;;;;;17.65;10.68;;;2.80;73.60;;;;;;5070160;28;20133;-80
2022/03/10 04:24:03;;;;;;;18.33;10.65;;;2.90;73.70;;;;;;5053476;28;20048;-79
2022/03/10 04:26:29;;;;;;;17.02;10.35;;;2.80;73.10;;;;;;5069826;28;20044;-79
2022/03/10 04:28:55;;;;;;;17.00;9.63;;;2.80;73.40;;;;;;5053600;28;20050;-79
2022/03/10 04:31:20;;;;;;;17.05;10.00;;;2.80;73.00;;;;;;5069866;28;20051;-80
2022/03/10 04:33:46;;;;;;;17.35;9.20;;;2.80;73.00;;;;;;5069569;28;20063;-80
2022/03/10 04:36:12;;;;;;;18.67;10.20;;;2.80;72.80;;;;;;5070194;28;20094;-80
2022/03/10 04:38:38;;;;;;;16.05;9.82;;;2.80;72.80;;;;;;5070189;28;20489;-80
2022/03/10 04:41:03;;;;;;;17.77;10.75;;;2.90;72.90;;;;;;5070100;28;20047;-80
2022/03/10 04:43:29;;;;;;;18.42;10.95;;;2.90;72.60;;;;;;5070030;28;20045;-79
2022/03/10 04:45:55;;;;;;;16.40;9.82;;;2.90;72.70;;;;;;5069925;28;20047;-80
2022/03/10 04:48:20;;;;;;;19.90;9.90;;;2.90;72.70;;;;;;5069751;28;20028;-80
2022/03/10 04:50:47;;;;;;;20.00;10.27;;;2.90;72.40;;;;;;5069943;28;20048;-80
2022/03/10 04:53:13;;;;;;;17.23;9.85;;;2.90;72.40;;;;;;5069805;28;20418;-80
2022/03/10 04:55:39;;;;;;;19.75;10.50;;;2.90;72.70;;;;;;5069795;28;20036;-80
2022/03/10 04:58:05;;;;;;;17.67;10.32;;;2.90;72.80;;;;;;5069675;28;20637;-80
2022/03/10 05:00:31;;;;;;;16.33;10.27;;;2.90;72.80;;;;;;5070117;28;20051;-80
2022/03/10 05:02:57;;;;;;;17.67;9.27;;;2.80;73.00;;;;;;5068600;28;20410;-80
2022/03/10 05:05:23;;;;;;;19.75;10.20;;;2.80;72.90;;;;;;5049915;28;20041;-80
2022/03/10 05:07:48;;;;;;;17.02;10.50;;;2.80;72.90;;;;;;5049556;28;20049;-80
2022/03/10 05:10:14;;;;;;;18.60;10.18;;;2.80;72.70;;;;;;5053329;28;20041;-79
2022/03/10 05:12:49;;;;;;;21.10;10.32;;;2.80;72.90;;;;;;5053692;28;20146;-80
2022/03/10 05:15:23;;;;;;;16.45;10.10;;;2.80;73.50;;;;;;5053683;28;20041;-79
2022/03/10 05:17:49;;;;;;;17.88;10.75;;;2.80;73.60;;;;;;5053408;28;20037;-80
2022/03/10 05:20:16;;;;;;;18.17;10.65;;;2.80;73.60;;;;;;5053668;28;20086;-80
2022/03/10 05:22:50;;;;;;;19.92;11.80;;;2.80;73.60;;;;;;5053539;28;20517;-80
2022/03/10 05:25:17;;;;;;;21.80;10.27;;;2.80;74.40;;;;;;5053929;28;20138;-80
2022/03/10 05:27:44;;;;;;;18.80;10.98;;;2.80;74.00;;;;;;5053444;28;20041;-80
2022/03/10 05:30:11;;;;;;;21.10;10.70;;;2.80;74.60;;;;;;5053420;28;20063;-80
2022/03/10 05:32:37;;;;;;;19.30;10.25;;;2.80;74.50;;;;;;5053300;28;20056;-80
2022/03/10 05:35:04;;;;;;;20.42;10.00;;;2.70;74.50;;;;;;5053344;28;20418;-80
2022/03/10 05:37:30;;;;;;;17.25;10.35;;;2.70;75.00;;;;;;5053108;28;20051;-79
2022/03/10 05:39:56;;;;;;;17.83;10.55;;;2.70;75.10;;;;;;5036489;28;20044;-79
2022/03/10 05:42:22;;;;;;;17.50;10.52;;;2.70;75.40;;;;;;5053087;28;20404;-80
2022/03/10 05:44:48;;;;;;;18.95;10.77;;;2.60;75.90;;;;;;5053681;28;20037;-79
2022/03/10 05:47:13;;;;;;;18.23;10.65;;;2.70;75.80;;;;;;5052853;28;20458;-79
2022/03/10 05:49:39;;;;;;;17.92;11.25;;;2.70;76.00;;;;;;5036590;28;20114;-80
2022/03/10 05:52:05;;;;;;;18.13;10.93;;;2.70;76.20;;;;;;5053003;28;20128;-80
2022/03/10 05:54:31;;;;;;;17.25;10.40;;;2.70;76.60;;;;;;5036350;28;20041;-79
2022/03/10 05:56:57;;;;;;;17.75;10.02;;;2.70;76.40;;;;;;5052267;28;20064;-80
2022/03/10 05:59:23;;;;;;;18.67;10.77;;;2.70;76.10;;;;;;5052281;28;20445;-80
2022/03/10 06:01:49;;;;;;;19.25;11.50;;;2.70;76.20;;;;;;5035443;28;20044;-79
2022/03/10 06:04:15;;;;;;;21.60;11.38;;;2.70;76.40;;;;;;5052768;28;20040;-80
2022/03/10 06:06:43;;;;;;;24.05;12.18;;;2.70;76.40;;;;;;5036077;28;20544;-80
2022/03/10 06:09:09;;;;;;;20.58;11.52;;;2.70;76.80;;;;;;5036078;28;20037;-80
2022/03/10 06:11:35;;;;;;;18.98;10.35;;;2.70;76.70;;;;;;5052806;28;20268;-80
2022/03/10 06:14:01;;;;;;;18.40;10.77;;;2.70;76.70;;;;;;5052534;28;20048;-80
2022/03/10 06:16:26;;;;;;;19.77;11.57;;;2.70;77.20;;;;;;5052542;28;20044;-80
2022/03/10 06:18:52;;;;;;;21.38;11.55;;;2.70;77.80;;;;;;5052471;28;20033;-80
2022/03/10 06:21:18;;;;;;;19.25;10.55;;;2.70;77.90;;;;;;5035133;28;20048;-80
2022/03/10 06:23:44;;;;;;;19.35;10.20;;;2.60;77.60;;;;;;5052567;28;20052;-80
2022/03/10 06:26:09;;;;;;;20.27;10.90;;;2.70;77.60;;;;;;5052540;28;20048;-80
2022/03/10 06:28:35;;;;;;;19.70;11.55;;;2.70;77.60;;;;;;5052468;28;20037;-80
2022/03/10 06:31:01;;;;;;;22.08;11.63;;;2.70;77.50;;;;;;5053641;28;20037;-80
2022/03/10 06:33:26;;;;;;;18.80;11.02;;;2.70;77.80;;;;;;5052089;28;20037;-79
2022/03/10 06:35:52;;;;;;;20.10;11.02;;;2.70;78.30;;;;;;5052317;28;20037;-79
2022/03/10 06:38:18;;;;;;;18.63;10.93;;;2.80;78.80;;;;;;5052308;28;20394;-80
2022/03/10 06:40:44;;;;;;;17.50;11.35;;;2.80;79.00;;;;;;5051907;28;20494;-79
2022/03/10 06:43:09;;;;;;;17.75;10.68;;;2.80;78.90;;;;;;5051746;28;20509;-79
2022/03/10 06:45:35;;;;;;;18.77;10.77;;;2.80;79.30;;;;;;5052175;28;20041;-80
2022/03/10 06:48:00;;;;;;;22.58;10.82;;;2.80;79.60;;;;;;5051895;28;20048;-79
2022/03/10 06:50:28;;;;;;;20.25;11.57;;;2.80;79.50;;;;;;5035717;28;20123;-80
2022/03/10 06:52:56;;;;;;;20.40;11.07;;;2.90;80.00;;;;;;5051741;28;20041;-80
2022/03/10 06:55:22;;;;;;;17.92;10.90;;;2.90;80.60;;;;;;5051109;28;20060;-80
2022/03/10 06:57:48;;;;;;;21.35;11.35;;;3.00;81.00;;;;;;5051546;28;20048;-80
2022/03/10 07:00:14;;;;;;;21.20;10.82;;;3.00;80.70;;;;;;5052174;28;20076;-80
2022/03/10 07:02:39;;;;;;;19.38;11.82;;;3.00;81.30;;;;;;5051611;28;20045;-80
2022/03/10 07:05:07;;;;;;;20.10;11.32;;;3.10;81.40;;;;;;5070168;28;20048;-80
2022/03/10 07:07:33;;;;;;;21.92;11.75;;;3.10;81.30;;;;;;5071525;28;20040;-80
2022/03/10 07:09:58;;;;;;;19.25;11.77;;;3.20;81.60;;;;;;5071384;28;20036;-80
2022/03/10 07:12:27;;;;;;;18.52;11.20;;;3.20;81.80;;;;;;5071464;28;20044;-79
2022/03/10 07:14:53;;;;;;;23.08;12.10;;;3.30;82.20;;;;;;5071816;28;20363;-80
2022/03/10 07:17:19;;;;;;;20.83;11.63;;;3.40;83.00;;;;;;5054483;28;20490;-80
2022/03/10 07:19:45;;;;;;;19.65;11.00;;;3.40;83.30;;;;;;5071744;28;20171;-80
2022/03/10 07:22:12;;;;;;;18.00;10.98;;;3.50;83.70;;;;;;5071323;28;20501;-80
2022/03/10 07:24:37;;;;;;;21.50;12.13;;;3.60;84.20;;;;;;5071291;28;20497;-80
2022/03/10 07:27:03;;;;;;;18.58;11.35;;;3.60;84.30;;;;;;5070785;28;20051;-79
2022/03/10 07:29:29;;;;;;;18.33;11.45;;;3.70;84.20;;;;;;5052540;28;20045;-77
2022/03/10 07:31:55;;;;;;;18.15;11.65;;;3.80;84.70;;;;;;5048399;28;20095;-79
2022/03/10 07:34:20;;;;;;;19.08;11.30;;;3.90;84.50;;;;;;5050998;28;20456;-80
2022/03/10 07:36:46;;;;;;;19.35;11.18;;;3.90;84.20;;;;;;5057546;28;20040;-79
2022/03/10 07:39:11;;;;;;;18.17;10.82;;;4.10;84.30;;;;;;5071279;28;20040;-79
2022/03/10 07:41:37;;;;;;;20.63;11.50;;;4.10;83.90;;;;;;5071131;28;20063;-79
2022/03/10 07:44:03;;;;;;;18.42;11.65;;;4.20;83.60;;;;;;5071101;28;20040;-78
2022/03/10 07:46:28;;;;;;;17.70;11.25;;;4.30;83.90;;;;;;5070535;28;20044;-80
2022/03/10 07:48:54;;;;;;;20.08;12.27;;;4.40;83.80;;;;;;5052144;28;20036;-80
2022/03/10 07:51:20;;;;;;;18.80;10.60;;;4.50;83.50;;;;;;5050552;28;20509;-80
2022/03/10 07:53:46;;;;;;;18.50;11.50;;;4.60;83.20;;;;;;5049939;28;20052;-81
2022/03/10 07:56:12;;;;;;;18.17;11.57;;;4.70;83.40;;;;;;5050517;28;20033;-81
2022/03/10 07:58:37;;;;;;;19.50;11.90;;;4.70;83.00;;;;;;5050605;28;20082;-81
2022/03/10 08:01:03;;;;;;;19.10;12.00;;;4.80;82.30;;;;;;5050070;28;20045;-81
2022/03/10 08:03:29;;;;;;;18.45;11.98;;;5.00;82.20;;;;;;5033543;28;20041;-81
2022/03/10 08:05:55;;;;;;;17.45;11.52;;;5.00;81.80;;;;;;5033854;28;20029;-81
2022/03/10 08:08:20;;;;;;;18.52;12.07;;;5.20;81.50;;;;;;5050305;28;20122;-81
2022/03/10 08:10:46;;;;;;;20.83;12.32;;;5.30;81.20;;;;;;5050140;28;20501;-81
2022/03/10 08:13:12;;;;;;;22.02;12.10;;;5.40;80.90;;;;;;5033171;28;20041;-81
2022/03/10 08:15:40;;;;;;;18.48;12.25;;;5.40;80.30;;;;;;5033850;28;20041;-81
2022/03/10 08:18:06;;;;;;;20.58;11.32;;;5.50;79.60;;;;;;5050100;28;20045;-81
2022/03/10 08:20:32;;;;;;;19.60;12.48;;;5.70;79.70;;;;;;5033316;28;20043;-81
2022/03/10 08:22:57;;;;;;;19.80;12.80;;;5.80;80.00;;;;;;5049858;28;20036;-80
2022/03/10 08:25:23;;;;;;;18.20;12.20;;;5.90;79.40;;;;;;5050385;28;20087;-80
2022/03/10 08:27:48;;;;;;;17.27;10.98;;;6.00;79.00;;;;;;5049956;28;20041;-80
2022/03/10 08:30:15;;;;;;;20.63;12.55;;;6.20;78.60;;;;;;5049625;28;20040;-80
2022/03/10 08:32:45;;;;;;;18.52;11.63;;;6.30;78.20;;;;;;5033123;28;20048;-80
2022/03/10 08:35:11;;;;;;;21.85;12.00;;;6.40;77.70;;;;;;5047443;28;20041;-81
2022/03/10 08:37:37;;;;;;;19.80;12.40;;;6.50;77.50;;;;;;5032491;28;20049;-80
2022/03/10 08:40:03;;;;;;;18.38;12.25;;;6.60;77.50;;;;;;5049622;28;20071;-80
2022/03/10 08:42:29;;;;;;;18.17;12.32;;;6.80;77.70;;;;;;5049625;28;20063;-80
2022/03/10 08:44:54;;;;;;;18.77;11.52;;;6.90;77.50;;;;;;5049529;28;20490;-81
2022/03/10 08:47:20;;;;;;;19.25;12.18;;;7.00;76.70;;;;;;5049445;28;20037;-80
2022/03/10 08:49:45;;;;;;;17.77;11.25;;;7.10;76.20;;;;;;5049565;28;20710;-81
2022/03/10 08:52:11;;;;;;;17.38;12.18;;;7.30;75.20;;;;;;5049506;28;20045;-81
2022/03/10 08:54:37;;;;;;;17.95;11.73;;;7.40;74.40;;;;;;5049740;28;20037;-80
2022/03/10 08:57:03;;;;;;;17.75;11.88;;;7.50;73.90;;;;;;5049059;28;20494;-80
2022/03/10 08:59:28;;;;;;;18.98;11.98;;;7.60;74.20;;;;;;5049595;28;20045;-81
2022/03/10 09:01:54;;;;;;;17.83;11.60;;;7.70;73.50;;;;;;5049631;28;20080;-80
2022/03/10 09:04:20;;;;;;;20.00;12.15;;;7.80;72.90;;;;;;5049212;28;20589;-81
2022/03/10 09:06:46;;;;;;;17.63;11.88;;;8.00;72.40;;;;;;5032594;28;20041;-80
2022/03/10 09:09:11;;;;;;;18.65;11.80;;;8.10;72.30;;;;;;5049412;28;20041;-81
2022/03/10 09:11:38;;;;;;;15.75;11.10;;;8.20;72.30;;;;;;5049005;28;20136;-81
2022/03/10 09:14:04;;;;;;;18.17;12.13;;;8.40;71.40;;;;;;5033184;28;20040;-81
2022/03/10 09:16:30;;;;;;;17.13;11.65;;;8.40;70.80;;;;;;5049409;28;20091;-81
2022/03/10 09:18:55;;;;;;;17.67;11.40;;;8.60;70.50;;;;;;5049089;28;20045;-81
2022/03/10 09:21:21;;;;;;;20.10;11.55;;;8.70;70.30;;;;;;5049273;28;20494;-81
2022/03/10 09:23:46;;;;;;;17.42;11.00;;;8.90;69.90;;;;;;5049601;28;20076;-81
2022/03/10 09:26:12;;;;;;;16.30;10.70;;;9.00;69.10;;;;;;5032939;28;20535;-81
2022/03/10 09:28:38;;;;;;;18.17;11.77;;;9.20;68.60;;;;;;5049310;28;20037;-81
2022/03/10 09:31:04;;;;;;;17.25;11.60;;;9.30;67.20;;;;;;5032898;28;20041;-81
2022/03/10 09:33:30;;;;;;;16.95;11.27;;;9.50;66.80;;;;;;5049175;28;20525;-81
2022/03/10 09:35:56;;;;;;;16.00;10.82;;;9.60;65.30;;;;;;5049490;28;20033;-81
2022/03/10 09:38:21;;;;;;;17.08;11.48;;;9.70;65.00;;;;;;5049109;28;20079;-80
2022/03/10 09:40:52;;;;;;;17.25;11.00;;;9.90;64.50;;;;;;5032908;28;20546;-81
2022/03/10 09:43:26;;;;;;;15.20;11.20;;;10.00;63.90;;;;;;5033259;28;20142;-81
2022/03/10 09:45:52;;;;;;;16.38;10.82;;;10.20;63.40;;;;;;5032408;28;20083;-81
2022/03/10 09:48:18;;;;;;;16.58;11.20;;;10.40;62.80;;;;;;5050968;28;20083;-81
2022/03/10 09:50:46;;;;;;;17.00;11.65;;;10.50;62.60;;;;;;5067735;28;20400;-81
2022/03/10 09:53:13;;;;;;;16.48;11.30;;;10.60;62.10;;;;;;5066663;28;20079;-81
2022/03/10 09:55:38;;;;;;;15.52;11.27;;;10.80;60.90;;;;;;5067837;28;20036;-81
2022/03/10 09:58:06;;;;;;;16.00;11.60;;;10.90;60.30;;;;;;5058794;28;20028;-81
2022/03/10 10:00:31;;;;;;;17.77;11.25;;;11.00;60.00;;;;;;5050955;28;20041;-81
2022/03/10 10:02:57;;;;;;;16.90;11.48;;;11.10;59.20;;;;;;5051068;28;20067;-81
2022/03/10 10:05:28;;;;;;;15.73;11.60;;;11.30;58.10;;;;;;5052141;28;20044;-81
2022/03/10 10:08:13;;;;;;;15.18;11.73;;;11.50;58.30;;;;;;5035972;28;20128;-80
2022/03/10 10:10:43;;;;;;;17.95;11.57;;;11.60;58.10;;;;;;5053094;28;20128;-81
2022/03/10 10:13:10;;;;;;;17.88;13.18;;;11.80;57.40;;;;;;5051380;28;20146;-81
2022/03/10 10:15:37;;;;;;;17.48;12.02;;;11.90;56.20;;;;;;5072952;28;20044;-81
2022/03/10 10:18:05;;;;;;;16.95;12.15;;;12.00;56.60;;;;;;5071603;28;20040;-81
2022/03/10 10:20:32;;;;;;;17.27;12.48;;;12.10;56.30;;;;;;5055328;28;20482;-81
2022/03/10 10:23:18;;;;;;;18.10;12.95;;;12.30;55.30;;;;;;5072210;28;20622;-81
2022/03/10 10:26:11;;;;;;;17.25;11.90;;;12.50;55.30;;;;;;5071449;28;20044;-81
2022/03/10 10:28:39;;;;;;;18.27;11.98;;;12.60;54.00;;;;;;5055875;28;20587;-81
2022/03/10 10:31:13;;;;;;;19.20;12.48;;;12.80;54.50;;;;;;5051520;28;20090;-81
2022/03/10 10:33:42;;;;;;;17.98;12.50;;;12.90;52.90;;;;;;5052097;28;20549;-81
2022/03/10 10:36:17;;;;;;;17.48;12.23;;;13.00;53.10;;;;;;5034895;28;20112;-81
2022/03/10 10:38:47;;;;;;;15.82;11.60;;;13.20;51.90;;;;;;5035068;28;20037;-81
2022/03/10 10:41:19;;;;;;;16.33;12.30;;;13.30;50.90;;;;;;5051864;28;20041;-81
2022/03/10 10:44:12;;;;;;;15.88;12.35;;;13.40;51.50;;;;;;5051741;28;20494;-81
2022/03/10 10:47:04;;;;;;;18.23;13.38;;;13.60;50.60;;;;;;5047804;28;20045;-81
2022/03/10 10:49:34;;;;;;;16.58;12.70;;;13.80;50.10;;;;;;5048098;28;20131;-81
2022/03/10 10:51:59;;;;;;;23.88;13.38;;;13.90;49.40;;;;;;5051753;28;20406;-81
2022/03/10 10:54:31;;;;;;;17.27;13.25;;;14.00;49.10;;;;;;5051828;28;20029;-81
2022/03/10 10:57:02;;;;;;;16.60;13.05;;;14.10;48.00;;;;;;5051488;28;20048;-81
2022/03/10 10:59:36;;;;;;;18.38;13.10;;;14.40;48.00;;;;;;5051555;28;20041;-81
2022/03/10 11:02:12;;;;;;;19.27;13.10;;;14.60;48.10;;;;;;5051877;28;20059;-81
2022/03/10 11:04:39;;;;;;;17.80;12.88;;;14.70;48.10;;;;;;5050511;28;20041;-81
2022/03/10 11:07:05;;;;;;;18.52;13.60;;;14.90;47.00;;;;;;5034303;28;20041;-81
2022/03/10 11:09:32;;;;;;;22.48;14.38;;;14.90;45.80;;;;;;5050963;28;20041;-81
2022/03/10 11:11:58;;;;;;;18.38;14.07;;;15.00;45.90;;;;;;5051373;28;20554;-81
2022/03/10 11:14:24;;;;;;;17.55;13.63;;;15.10;44.70;;;;;;5051802;28;20142;-81
2022/03/10 11:16:50;;;;;;;17.35;12.77;;;15.20;44.60;;;;;;5051184;28;20090;-81
2022/03/10 11:19:25;;;;;;;16.70;13.32;;;15.40;44.80;;;;;;5034708;28;20157;-81
2022/03/10 11:21:53;;;;;;;17.70;13.32;;;15.50;45.50;;;;;;5050832;28;20048;-81
2022/03/10 11:24:37;;;;;;;16.73;12.85;;;15.60;43.40;;;;;;5033891;28;20079;-81
2022/03/10 11:27:11;;;;;;;16.98;13.38;;;15.70;42.60;;;;;;5051158;28;20474;-81
2022/03/10 11:29:38;;;;;;;16.33;12.93;;;15.90;41.70;;;;;;5051107;28;20040;-81
2022/03/10 11:32:06;;;;;;;16.42;12.63;;;16.00;41.70;;;;;;5051246;28;20048;-81
2022/03/10 11:34:55;;;;;;;18.50;13.70;;;16.20;41.90;;;;;;5050929;28;20040;-81
2022/03/10 11:37:34;;;;;;;20.33;13.70;;;16.40;41.20;;;;;;5050798;28;20043;-81
2022/03/10 11:40:00;;;;;;;18.30;13.48;;;16.40;40.70;;;;;;5050455;28;20037;-81
2022/03/10 11:42:29;;;;;;;19.88;14.52;;;16.50;40.80;;;;;;5050928;28;20045;-82
2022/03/10 11:45:19;;;;;;;19.25;15.00;;;16.50;40.00;;;;;;5050544;28;20044;-81
2022/03/10 11:47:46;;;;;;;19.05;14.00;;;16.60;39.90;;;;;;5034217;28;20498;-81
2022/03/10 11:50:24;;;;;;;18.02;13.63;;;16.60;40.60;;;;;;5050596;28;20045;-81
2022/03/10 11:53:01;;;;;;;19.55;14.13;;;16.70;39.90;;;;;;5033288;28;20080;-82
2022/03/10 11:55:39;;;;;;;18.48;14.68;;;16.90;40.80;;;;;;5031879;28;20049;-82
2022/03/10 11:58:05;;;;;;;17.77;14.65;;;17.20;39.90;;;;;;5050503;28;20402;-81
2022/03/10 12:00:49;;;;;;;18.17;14.02;;;17.40;39.40;;;;;;5050585;28;20033;-82
2022/03/10 12:03:20;;;;;;;18.55;14.40;;;17.70;39.30;;;;;;5033825;28;20045;-82
2022/03/10 12:05:59;;;;;;;18.98;15.15;;;17.80;38.20;;;;;;5048194;28;20045;-81
2022/03/10 12:08:37;;;;;;;19.65;14.70;;;18.00;38.20;;;;;;5050191;28;20083;-81
2022/03/10 12:11:12;;;;;;;21.55;14.18;;;18.00;38.70;;;;;;5050309;28;20048;-81
2022/03/10 12:13:39;;;;;;;20.13;14.65;;;18.20;38.60;;;;;;5050082;28;20120;-81
2022/03/10 12:16:26;;;;;;;19.52;14.90;;;18.40;38.00;;;;;;5066919;28;20510;-82
2022/03/10 12:18:52;;;;;;;18.92;15.40;;;18.50;38.10;;;;;;5048640;28;20102;-82
2022/03/10 12:21:22;;;;;;;18.95;14.60;;;18.70;37.90;;;;;;5036721;28;20041;-81
2022/03/10 12:23:56;;;;;;;31.30;16.45;;;18.80;37.90;;;;;;5050029;28;20041;-81
2022/03/10 12:26:34;;;;;;;19.52;14.77;;;18.80;37.60;;;;;;5049939;28;20037;-81
2022/03/10 12:29:03;;;;;;;21.23;15.95;;;19.10;37.90;;;;;;5049025;28;20383;-81
2022/03/10 12:31:32;;;;;;;20.65;15.57;;;19.30;37.80;;;;;;5049674;28;20124;-82
2022/03/10 12:34:00;;;;;;;19.55;15.05;;;19.50;37.50;;;;;;5049937;28;20047;-81
2022/03/10 12:36:49;;;;;;;18.38;14.73;;;19.60;36.80;;;;;;5033349;28;20512;-81
2022/03/10 12:39:16;;;;;;;23.70;14.88;;;19.80;36.70;;;;;;5033416;28;20490;-81
2022/03/10 12:41:48;;;;;;;22.25;15.90;;;19.90;36.70;;;;;;5050395;28;20546;-82
2022/03/10 12:44:18;;;;;;;18.88;14.80;;;20.10;36.80;;;;;;5050426;28;20516;-81
2022/03/10 12:46:44;;;;;;;19.83;15.13;;;20.30;36.40;;;;;;5049916;28;20134;-82